Time;durP1;ratioP1;P1;durP2;ratioP2;P2;SDS_P1;SDS_P2;PMS_P1;PMS_P2;Temp;Humidity;BMP_temperature;BMP_pressure;BME280_temperature;BME280_humidity;BME280_pressure;Samples;Min_cycle;Max_cycle;Signal;HPM_P1;HPM_P2
2022/11/05 00:10:44;;;;;;;;;;;25.90;90.20;;;;;;5055807;28;19920;-75
2022/11/05 00:18:40;;;;;;;;;;;26.50;90.30;;;;;;5036692;28;19928;-76
2022/11/05 00:26:40;;;;;;;;;;;26.70;86.20;;;;;;5040113;28;19958;-77
2022/11/05 00:29:07;;;;;;;;;;;26.80;86.40;;;;;;5047121;28;19916;-74
2022/11/05 00:31:34;;;;;;;;;;;27.10;87.60;;;;;;5054891;28;21091;-73
2022/11/05 00:34:00;;;;;;;;;;;27.50;87.20;;;;;;5040945;28;19917;-75
2022/11/05 00:36:27;;;;;;;;;;;27.80;88.80;;;;;;5052741;28;19948;-77
2022/11/05 00:38:54;;;;;;;;;;;28.00;85.80;;;;;;5039905;28;19963;-80
2022/11/05 00:41:20;;;;;;;;;;;27.80;85.70;;;;;;5054367;28;20433;-76
2022/11/05 00:46:32;;;;;;;;;;;26.90;89.40;;;;;;5035914;28;20397;-75
2022/11/05 00:51:43;;;;;;;;;;;25.50;87.70;;;;;;5054301;28;20275;-75
2022/11/05 00:54:09;;;;;;;;;;;24.90;89.30;;;;;;5054923;28;20334;-79
2022/11/05 00:56:36;;;;;;;;;;;24.60;90.50;;;;;;5053507;28;19931;-77
2022/11/05 00:59:03;;;;;;;;;;;24.30;90.40;;;;;;5054659;28;19970;-78
2022/11/05 01:01:29;;;;;;;;;;;24.30;90.80;;;;;;5052560;28;20342;-74
2022/11/05 01:03:56;;;;;;;;;;;24.30;90.70;;;;;;5053716;28;19966;-71
2022/11/05 01:06:23;;;;;;;;;;;24.10;90.60;;;;;;5054229;28;19921;-78
2022/11/05 01:08:49;;;;;;;;;;;24.00;90.80;;;;;;5047562;28;20391;-73
2022/11/05 01:11:33;;;;;;;;;;;24.20;91.20;;;;;;5039053;28;19909;-78
2022/11/05 01:14:00;;;;;;;;;;;25.20;91.10;;;;;;5045244;28;19916;-77
2022/11/05 01:16:27;;;;;;;;;;;26.40;91.40;;;;;;5067871;28;20517;-78
2022/11/05 01:18:54;;;;;;;;;;;27.20;87.30;;;;;;5038780;28;19960;-78
2022/11/05 01:21:20;;;;;;;;;;;27.80;85.10;;;;;;5052628;28;19908;-75
2022/11/05 01:23:47;;;;;;;;;;;28.10;86.20;;;;;;5054175;28;20248;-75
2022/11/05 01:26:13;;;;;;;;;;;27.60;83.80;;;;;;5054074;28;19948;-76
2022/11/05 01:28:40;;;;;;;;;;;26.80;85.10;;;;;;5035024;28;20309;-77
2022/11/05 01:31:07;;;;;;;;;;;26.20;84.80;;;;;;5034107;28;20008;-77
2022/11/05 01:33:33;;;;;;;;;;;25.40;85.60;;;;;;5052440;28;19979;-78
2022/11/05 01:36:00;;;;;;;;;;;24.80;87.20;;;;;;5052066;28;19913;-79
2022/11/05 01:38:27;;;;;;;;;;;24.40;88.40;;;;;;5034582;28;20020;-78
2022/11/05 01:40:53;;;;;;;;;;;24.10;89.10;;;;;;5053278;28;19920;-78
2022/11/05 01:43:21;;;;;;;;;;;24.00;88.70;;;;;;5037131;28;20020;-77
2022/11/05 01:45:50;;;;;;;;;;;24.00;88.60;;;;;;5034056;28;19916;-78
2022/11/05 01:48:18;;;;;;;;;;;24.10;88.90;;;;;;5034596;28;20511;-78
2022/11/05 01:51:02;;;;;;;;;;;24.00;88.80;;;;;;5033867;28;19982;-78
2022/11/05 01:53:44;;;;;;;;;;;24.20;88.20;;;;;;5034418;28;19912;-75
2022/11/05 01:56:16;;;;;;;;;;;25.20;87.90;;;;;;5042142;28;19924;-78
2022/11/05 01:58:45;;;;;;;;;;;26.20;90.10;;;;;;5034354;28;20019;-75
2022/11/05 02:01:12;;;;;;;;;;;26.20;87.60;;;;;;5034339;28;19910;-79
2022/11/05 02:03:39;;;;;;;;;;;25.90;86.90;;;;;;5034741;28;19956;-79
2022/11/05 02:06:08;;;;;;;;;;;25.70;85.90;;;;;;5033238;28;19929;-77
2022/11/05 02:08:43;;;;;;;;;;;25.20;85.70;;;;;;5049185;28;19920;-77
2022/11/05 02:11:12;;;;;;;;;;;24.90;87.30;;;;;;5037688;28;19913;-78
2022/11/05 02:13:39;;;;;;;;;;;24.70;87.10;;;;;;5043383;28;19913;-77
2022/11/05 02:16:08;;;;;;;;;;;24.50;87.20;;;;;;5053187;28;20008;-77
2022/11/05 02:18:44;;;;;;;;;;;24.30;87.70;;;;;;5034137;28;19970;-77
2022/11/05 02:21:26;;;;;;;;;;;24.20;88.40;;;;;;5033450;28;19952;-77
2022/11/05 02:24:02;;;;;;;;;;;24.20;88.50;;;;;;5033589;28;19974;-77
2022/11/05 02:26:40;;;;;;;;;;;24.20;88.40;;;;;;5052349;28;19948;-77
2022/11/05 02:29:10;;;;;;;;;;;24.20;88.50;;;;;;5052258;28;19917;-77
2022/11/05 02:31:36;;;;;;;;;;;24.10;89.70;;;;;;5040329;28;19927;-78
2022/11/05 02:34:09;;;;;;;;;;;24.10;89.70;;;;;;5053067;28;19967;-79
2022/11/05 02:36:43;;;;;;;;;;;23.90;89.50;;;;;;5050204;28;20362;-77
2022/11/05 02:39:28;;;;;;;;;;;23.90;90.10;;;;;;5039978;28;20356;-77
2022/11/05 02:41:57;;;;;;;;;;;23.90;90.70;;;;;;5046994;28;19913;-71
2022/11/05 02:44:44;;;;;;;;;;;24.10;90.40;;;;;;5033054;28;19955;-78
2022/11/05 02:47:28;;;;;;;;;;;24.20;90.20;;;;;;5039628;28;20378;-77
2022/11/05 02:50:01;;;;;;;;;;;24.30;90.60;;;;;;5051718;28;20282;-78
2022/11/05 02:52:28;;;;;;;;;;;24.70;90.10;;;;;;5042275;28;19939;-78
2022/11/05 02:54:57;;;;;;;;;;;25.50;89.20;;;;;;5048839;28;19912;-72
2022/11/05 02:57:28;;;;;;;;;;;26.60;87.90;;;;;;5042001;28;20387;-78
2022/11/05 03:00:01;;;;;;;;;;;27.40;85.00;;;;;;5033116;28;19971;-70
2022/11/05 03:02:28;;;;;;;;;;;27.30;84.60;;;;;;5033279;28;19913;-79
2022/11/05 03:04:54;;;;;;;;;;;26.70;83.90;;;;;;5043847;28;19967;-74
2022/11/05 03:07:30;;;;;;;;;;;26.60;85.40;;;;;;5042867;28;20303;-79
2022/11/05 03:10:15;;;;;;;;;;;26.80;86.20;;;;;;5045504;28;20401;-79
2022/11/05 03:12:46;;;;;;;;;;;27.40;84.80;;;;;;5040972;28;19913;-80
2022/11/05 03:15:15;;;;;;;;;;;27.70;83.70;;;;;;5047946;28;19913;-74
2022/11/05 03:17:42;;;;;;;;;;;27.50;84.20;;;;;;5045340;28;19924;-77
2022/11/05 03:20:09;;;;;;;;;;;27.50;83.90;;;;;;5051566;28;19912;-76
2022/11/05 03:22:41;;;;;;;;;;;27.50;84.00;;;;;;5042093;28;20209;-77
2022/11/05 03:25:12;;;;;;;;;;;27.10;84.10;;;;;;5032463;28;19919;-73
2022/11/05 03:27:42;;;;;;;;;;;26.90;85.60;;;;;;5033240;28;20012;-77
2022/11/05 03:30:10;;;;;;;;;;;26.70;85.60;;;;;;5032298;28;20406;-78
2022/11/05 03:32:42;;;;;;;;;;;26.80;85.10;;;;;;5041218;28;19916;-78
2022/11/05 03:35:12;;;;;;;;;;;27.10;85.30;;;;;;5032298;28;19940;-78
2022/11/05 03:37:41;;;;;;;;;;;27.40;84.90;;;;;;5043707;28;19998;-78
2022/11/05 03:40:09;;;;;;;;;;;27.80;84.10;;;;;;5051290;28;19955;-78
2022/11/05 03:42:37;;;;;;;;;;;27.80;84.30;;;;;;5040386;28;19924;-78
2022/11/05 03:45:09;;;;;;;;;;;28.10;85.40;;;;;;5045967;28;19912;-78
2022/11/05 03:47:39;;;;;;;;;;;27.90;83.60;;;;;;5040301;28;19917;-77
2022/11/05 03:50:17;;;;;;;;;;;27.20;84.00;;;;;;5032594;28;19913;-78
2022/11/05 03:53:03;;;;;;;;;;;26.70;86.10;;;;;;5032736;28;19913;-75
2022/11/05 03:55:34;;;;;;;;;;;26.20;86.30;;;;;;5040926;28;19960;-78
2022/11/05 03:58:03;;;;;;;;;;;25.90;87.20;;;;;;5050961;28;19960;-77
2022/11/05 04:00:30;;;;;;;;;;;25.90;87.30;;;;;;5050963;28;19917;-77
2022/11/05 04:02:56;;;;;;;;;;;26.10;87.50;;;;;;5038322;28;20217;-76
2022/11/05 04:05:23;;;;;;;;;;;25.90;87.50;;;;;;5031909;28;19921;-77
2022/11/05 04:13:25;;;;;;;;;;;25.90;88.90;;;;;;5050183;28;19919;-75
2022/11/05 04:18:37;;;;;;;;;;;25.50;90.10;;;;;;5034202;28;20022;-80
2022/11/05 04:24:07;;;;;;;;;;;25.00;90.20;;;;;;5055678;28;19946;-74
2022/11/05 04:26:38;;;;;;;;;;;24.90;90.60;;;;;;5054482;28;19921;-70
2022/11/05 04:31:49;;;;;;;;;;;25.20;90.70;;;;;;5050933;28;20003;-74
2022/11/05 04:34:17;;;;;;;;;;;25.00;90.30;;;;;;5050129;28;19912;-69
2022/11/05 04:36:45;;;;;;;;;;;24.80;90.60;;;;;;5051400;28;20445;-75
2022/11/05 04:39:12;;;;;;;;;;;24.50;90.90;;;;;;5045335;28;19913;-70
2022/11/05 04:41:38;;;;;;;;;;;24.00;91.30;;;;;;5051539;28;19912;-77
2022/11/05 04:44:05;;;;;;;;;;;23.80;91.40;;;;;;5035070;28;20283;-69
2022/11/05 04:46:31;;;;;;;;;;;23.60;92.20;;;;;;5042029;28;20457;-73
2022/11/05 04:48:58;;;;;;;;;;;23.50;92.30;;;;;;5039659;28;19913;-72
2022/11/05 04:51:26;;;;;;;;;;;23.60;92.30;;;;;;5053830;28;19920;-75
2022/11/05 04:53:55;;;;;;;;;;;24.10;92.80;;;;;;5034988;28;19913;-76
2022/11/05 04:56:23;;;;;;;;;;;24.60;91.70;;;;;;5049439;28;20359;-72
2022/11/05 04:58:49;;;;;;;;;;;25.00;91.00;;;;;;5034852;28;19924;-72
2022/11/05 05:01:17;;;;;;;;;;;25.10;90.90;;;;;;5034784;28;20243;-72
2022/11/05 05:03:46;;;;;;;;;;;25.20;91.00;;;;;;5054610;28;19920;-72
2022/11/05 05:06:12;;;;;;;;;;;25.00;90.80;;;;;;5054175;28;19964;-70
2022/11/05 05:08:39;;;;;;;;;;;24.60;90.80;;;;;;5035439;28;19914;-70
2022/11/05 05:11:07;;;;;;;;;;;24.60;91.20;;;;;;5034836;28;19919;-77
2022/11/05 05:13:33;;;;;;;;;;;24.70;91.00;;;;;;5035995;28;19917;-69
2022/11/05 05:16:04;;;;;;;;;;;24.60;91.20;;;;;;5034499;28;19935;-73
2022/11/05 05:18:31;;;;;;;;;;;24.50;91.40;;;;;;5034966;28;19967;-70
2022/11/05 05:23:42;;;;;;;;;;;24.30;91.60;;;;;;5054477;28;19920;-72
2022/11/05 05:26:09;;;;;;;;;;;24.10;91.60;;;;;;5054301;28;19963;-71
2022/11/05 05:28:36;;;;;;;;;;;23.90;91.90;;;;;;5035154;28;20004;-71
2022/11/05 05:31:03;;;;;;;;;;;23.90;91.80;;;;;;5042011;28;19914;-69
2022/11/05 05:33:29;;;;;;;;;;;23.90;91.60;;;;;;5034949;28;19932;-68
2022/11/05 05:35:57;;;;;;;;;;;23.80;91.40;;;;;;5034683;28;19955;-69
2022/11/05 05:38:24;;;;;;;;;;;23.50;91.60;;;;;;5053094;28;20375;-70
2022/11/05 05:40:50;;;;;;;;;;;23.30;91.60;;;;;;5053669;28;19920;-69
2022/11/05 05:43:20;;;;;;;;;;;23.10;92.00;;;;;;5037516;28;20410;-71
2022/11/05 05:45:47;;;;;;;;;;;22.90;92.20;;;;;;5033890;28;19956;-70
2022/11/05 05:48:13;;;;;;;;;;;23.00;91.80;;;;;;5034655;28;19917;-69
2022/11/05 05:50:40;;;;;;;;;;;23.00;91.90;;;;;;5033805;28;19992;-70
2022/11/05 05:53:07;;;;;;;;;;;23.20;91.80;;;;;;5050975;28;19917;-77
2022/11/05 05:55:34;;;;;;;;;;;23.40;91.80;;;;;;5054213;28;19917;-70
2022/11/05 05:58:04;;;;;;;;;;;23.50;91.40;;;;;;5039567;28;19924;-70
2022/11/05 06:00:30;;;;;;;;;;;23.50;91.30;;;;;;5033502;28;19928;-70
2022/11/05 06:02:57;;;;;;;;;;;23.40;91.20;;;;;;5034401;28;19955;-69
2022/11/05 06:05:24;;;;;;;;;;;23.30;91.20;;;;;;5051155;28;19932;-70
2022/11/05 06:07:57;;;;;;;;;;;23.20;91.60;;;;;;5052429;28;20244;-70
2022/11/05 06:10:24;;;;;;;;;;;23.00;91.30;;;;;;5053693;28;20371;-69
2022/11/05 06:12:50;;;;;;;;;;;22.90;91.50;;;;;;5041110;28;19917;-70
2022/11/05 06:15:17;;;;;;;;;;;22.80;91.80;;;;;;5033260;28;19919;-70
2022/11/05 06:17:44;;;;;;;;;;;22.70;91.90;;;;;;5033651;28;19921;-70
2022/11/05 06:20:11;;;;;;;;;;;22.70;91.80;;;;;;5033191;28;19909;-72
2022/11/05 06:22:38;;;;;;;;;;;22.60;91.90;;;;;;5033832;28;20371;-70
2022/11/05 06:25:06;;;;;;;;;;;22.60;91.80;;;;;;5043445;28;19923;-70
2022/11/05 06:27:33;;;;;;;;;;;22.50;91.90;;;;;;5043437;28;19917;-70
2022/11/05 06:29:59;;;;;;;;;;;22.40;92.30;;;;;;5053151;28;19951;-70
2022/11/05 06:32:26;;;;;;;;;;;22.40;92.40;;;;;;5043737;28;19917;-70
2022/11/05 06:34:56;;;;;;;;;;;22.30;92.60;;;;;;5032292;28;21323;-76
2022/11/05 06:37:23;;;;;;;;;;;22.40;92.40;;;;;;5041536;28;19921;-75
2022/11/05 06:39:50;;;;;;;;;;;22.50;92.30;;;;;;5051898;28;19909;-77
2022/11/05 06:42:16;;;;;;;;;;;22.50;92.30;;;;;;5033156;28;20379;-76
2022/11/05 06:44:43;;;;;;;;;;;22.50;92.60;;;;;;5035052;28;20367;-73
2022/11/05 06:47:10;;;;;;;;;;;22.50;92.80;;;;;;5051803;28;19954;-77
2022/11/05 06:49:37;;;;;;;;;;;22.50;92.90;;;;;;5052732;28;20026;-74
2022/11/05 06:52:04;;;;;;;;;;;22.50;92.80;;;;;;5046256;28;19936;-75
2022/11/05 06:54:30;;;;;;;;;;;22.40;93.00;;;;;;5040740;28;20315;-72
2022/11/05 06:56:57;;;;;;;;;;;22.30;92.90;;;;;;5048319;28;20385;-73
2022/11/05 06:59:23;;;;;;;;;;;22.20;93.20;;;;;;5052506;28;19913;-74
2022/11/05 07:01:50;;;;;;;;;;;22.00;93.60;;;;;;5053695;28;19944;-74
2022/11/05 07:04:17;;;;;;;;;;;21.90;93.70;;;;;;5072477;28;19923;-74
2022/11/05 07:06:43;;;;;;;;;;;21.80;94.20;;;;;;5064400;28;19928;-76
2022/11/05 07:09:10;;;;;;;;;;;21.70;94.40;;;;;;5032558;28;19913;-76
2022/11/05 07:11:37;;;;;;;;;;;21.70;94.50;;;;;;5032075;28;19921;-70
2022/11/05 07:14:04;;;;;;;;;;;21.70;94.70;;;;;;5033300;28;19909;-73
2022/11/05 07:16:30;;;;;;;;;;;21.70;94.60;;;;;;5038539;28;19999;-71
2022/11/05 07:18:57;;;;;;;;;;;21.70;94.50;;;;;;5046232;28;20304;-72
2022/11/05 07:21:24;;;;;;;;;;;21.80;94.50;;;;;;5051482;28;19916;-72
2022/11/05 07:23:51;;;;;;;;;;;21.70;94.30;;;;;;5032436;28;19913;-74
2022/11/05 07:26:17;;;;;;;;;;;21.70;94.00;;;;;;5032250;28;20355;-77
2022/11/05 07:28:44;;;;;;;;;;;21.50;93.90;;;;;;5032684;28;19910;-77
2022/11/05 07:31:11;;;;;;;;;;;21.40;94.00;;;;;;5032164;28;19910;-76
2022/11/05 07:33:37;;;;;;;;;;;21.30;94.10;;;;;;5040592;28;19924;-77
2022/11/05 07:36:04;;;;;;;;;;;21.30;94.20;;;;;;5037656;28;19913;-76
2022/11/05 07:38:31;;;;;;;;;;;21.20;94.30;;;;;;5033522;28;19922;-69
2022/11/05 07:41:01;;;;;;;;;;;21.00;94.30;;;;;;5032281;28;20353;-77
2022/11/05 07:43:27;;;;;;;;;;;21.00;94.60;;;;;;5033462;28;19917;-71
2022/11/05 07:45:54;;;;;;;;;;;20.90;94.70;;;;;;5048799;28;19916;-74
2022/11/05 07:48:21;;;;;;;;;;;20.80;94.70;;;;;;5034332;28;19921;-74
2022/11/05 07:50:50;;;;;;;;;;;20.80;94.70;;;;;;5031988;28;19921;-76
2022/11/05 07:53:17;;;;;;;;;;;20.70;94.40;;;;;;5040380;28;19960;-75
2022/11/05 07:55:44;;;;;;;;;;;20.60;94.10;;;;;;5056186;28;20247;-75
2022/11/05 07:58:11;;;;;;;;;;;20.50;94.10;;;;;;5040047;28;20015;-75
2022/11/05 08:00:38;;;;;;;;;;;20.40;94.10;;;;;;5042015;28;19963;-74
2022/11/05 08:03:09;;;;;;;;;;;20.30;94.10;;;;;;5041048;28;19914;-75
2022/11/05 08:05:38;;;;;;;;;;;20.30;93.90;;;;;;5035796;28;19923;-77
2022/11/05 08:08:06;;;;;;;;;;;20.20;93.70;;;;;;5036711;28;20274;-77
2022/11/05 08:10:33;;;;;;;;;;;20.10;93.80;;;;;;5045013;28;19948;-73
2022/11/05 08:13:00;;;;;;;;;;;20.00;93.80;;;;;;5052947;28;19921;-78
2022/11/05 08:15:27;;;;;;;;;;;20.00;94.00;;;;;;5054687;28;19916;-76
2022/11/05 08:18:19;;;;;;;;;;;19.90;94.30;;;;;;5041532;28;20371;-72
2022/11/05 08:20:46;;;;;;;;;;;19.80;94.60;;;;;;5033659;28;19920;-76
2022/11/05 08:23:13;;;;;;;;;;;19.70;94.90;;;;;;5053930;28;19921;-73
2022/11/05 08:25:40;;;;;;;;;;;19.60;95.20;;;;;;5055514;28;19967;-74
2022/11/05 08:28:08;;;;;;;;;;;19.50;95.40;;;;;;5054632;28;19927;-75
2022/11/05 08:30:35;;;;;;;;;;;19.50;95.50;;;;;;5055034;28;19930;-77
2022/11/05 08:33:03;;;;;;;;;;;19.40;95.80;;;;;;5051957;28;20416;-76
2022/11/05 08:35:30;;;;;;;;;;;19.30;95.90;;;;;;5055274;28;20275;-76
2022/11/05 08:37:57;;;;;;;;;;;19.20;96.10;;;;;;5041565;28;19921;-77
2022/11/05 08:40:25;;;;;;;;;;;19.20;96.50;;;;;;5035330;28;20348;-76
2022/11/05 08:42:52;;;;;;;;;;;19.10;96.60;;;;;;5035846;28;19920;-75
2022/11/05 08:45:18;;;;;;;;;;;19.00;96.80;;;;;;5050985;28;20006;-75
2022/11/05 08:47:45;;;;;;;;;;;19.00;97.00;;;;;;5043138;28;19913;-75
2022/11/05 08:50:12;;;;;;;;;;;18.90;97.20;;;;;;5035101;28;19997;-76
2022/11/05 08:52:41;;;;;;;;;;;18.90;97.30;;;;;;5036821;28;19963;-76
2022/11/05 08:55:08;;;;;;;;;;;18.80;97.50;;;;;;5055058;28;20046;-73
2022/11/05 08:57:35;;;;;;;;;;;18.70;97.70;;;;;;5043406;28;20039;-77
2022/11/05 09:00:01;;;;;;;;;;;18.70;97.70;;;;;;5035028;28;19916;-76
2022/11/05 09:02:28;;;;;;;;;;;18.70;97.70;;;;;;5050762;28;20522;-76
2022/11/05 09:04:55;;;;;;;;;;;18.60;97.80;;;;;;5052709;28;20274;-73
2022/11/05 09:07:21;;;;;;;;;;;18.60;98.00;;;;;;5045354;28;19952;-78
2022/11/05 09:09:48;;;;;;;;;;;18.60;97.90;;;;;;5045989;28;19938;-73
2022/11/05 09:12:15;;;;;;;;;;;18.50;97.90;;;;;;5045711;28;19943;-78
2022/11/05 09:14:41;;;;;;;;;;;18.50;98.10;;;;;;5034649;28;19919;-76
2022/11/05 09:17:19;;;;;;;;;;;18.40;98.30;;;;;;5034688;28;19924;-77
2022/11/05 09:19:46;;;;;;;;;;;18.40;98.40;;;;;;5053180;28;19919;-74
2022/11/05 09:22:12;;;;;;;;;;;18.40;98.40;;;;;;5035763;28;19913;-76
2022/11/05 09:24:40;;;;;;;;;;;18.30;98.50;;;;;;5033826;28;20003;-75
2022/11/05 09:27:09;;;;;;;;;;;18.30;98.60;;;;;;5034696;28;19913;-77
2022/11/05 09:29:36;;;;;;;;;;;18.20;98.60;;;;;;5033862;28;19943;-77
2022/11/05 09:32:02;;;;;;;;;;;18.20;98.60;;;;;;5041712;28;19913;-73
2022/11/05 09:34:29;;;;;;;;;;;18.20;98.70;;;;;;5049766;28;19966;-75
2022/11/05 09:36:56;;;;;;;;;;;18.10;98.70;;;;;;5065791;28;19927;-76
2022/11/05 09:39:23;;;;;;;;;;;18.00;98.80;;;;;;5052795;28;19924;-77
2022/11/05 09:41:51;;;;;;;;;;;18.00;99.00;;;;;;5049116;28;19913;-78
2022/11/05 09:44:23;;;;;;;;;;;18.00;98.90;;;;;;5033345;28;19980;-76
2022/11/05 09:46:55;;;;;;;;;;;17.90;99.00;;;;;;5034168;28;19928;-73
2022/11/05 09:49:25;;;;;;;;;;;17.90;99.00;;;;;;5033577;28;19982;-75
2022/11/05 09:51:53;;;;;;;;;;;17.90;99.20;;;;;;5043031;28;19919;-78
2022/11/05 09:54:23;;;;;;;;;;;17.80;99.30;;;;;;5053152;28;19995;-75
2022/11/05 09:56:50;;;;;;;;;;;17.70;99.40;;;;;;5048530;28;20310;-78
2022/11/05 09:59:19;;;;;;;;;;;17.70;99.30;;;;;;5033053;28;19921;-78
2022/11/05 10:01:47;;;;;;;;;;;17.70;99.40;;;;;;5033962;28;19944;-77
2022/11/05 10:04:18;;;;;;;;;;;17.60;99.30;;;;;;5033126;28;19911;-76
2022/11/05 10:06:51;;;;;;;;;;;17.60;99.50;;;;;;5033478;28;20362;-76
2022/11/05 10:09:23;;;;;;;;;;;17.50;99.60;;;;;;5040225;28;19931;-74
2022/11/05 10:11:55;;;;;;;;;;;17.50;99.80;;;;;;5048406;28;19913;-77
2022/11/05 10:14:25;;;;;;;;;;;17.40;99.90;;;;;;5040652;28;19936;-79
2022/11/05 10:16:55;;;;;;;;;;;17.40;99.90;;;;;;5061294;28;19928;-71
2022/11/05 10:19:24;;;;;;;;;;;17.30;99.90;;;;;;5047530;28;20341;-76
2022/11/05 10:21:55;;;;;;;;;;;17.20;99.90;;;;;;5036763;28;19921;-76
2022/11/05 10:24:22;;;;;;;;;;;17.20;99.90;;;;;;5041274;28;19916;-78
2022/11/05 10:26:50;;;;;;;;;;;17.10;99.90;;;;;;5048694;28;19924;-74
2022/11/05 10:29:35;;;;;;;;;;;17.10;99.90;;;;;;5032669;28;19919;-75
2022/11/05 10:32:04;;;;;;;;;;;17.00;99.90;;;;;;5033328;28;19919;-76
2022/11/05 10:34:35;;;;;;;;;;;16.90;99.90;;;;;;5032420;28;19935;-77
2022/11/05 10:37:02;;;;;;;;;;;16.90;99.90;;;;;;5040192;28;19921;-76
2022/11/05 10:39:30;;;;;;;;;;;16.80;99.90;;;;;;5032589;28;19917;-77
2022/11/05 10:41:56;;;;;;;;;;;16.70;99.90;;;;;;5044208;28;19932;-77
2022/11/05 10:44:26;;;;;;;;;;;16.60;99.90;;;;;;5048637;28;19913;-77
2022/11/05 10:47:07;;;;;;;;;;;16.50;99.90;;;;;;5047335;28;20363;-74
2022/11/05 10:49:43;;;;;;;;;;;16.40;99.90;;;;;;5032408;28;19913;-77
2022/11/05 10:52:18;;;;;;;;;;;16.40;99.90;;;;;;5038229;28;19948;-77
2022/11/05 10:54:46;;;;;;;;;;;16.30;99.90;;;;;;5051333;28;20425;-78
2022/11/05 10:57:31;;;;;;;;;;;16.20;99.90;;;;;;5041943;28;19917;-76
2022/11/05 11:00:16;;;;;;;;;;;16.10;99.90;;;;;;5049592;28;20683;-78
2022/11/05 11:02:48;;;;;;;;;;;16.10;99.90;;;;;;5040051;28;19913;-76
2022/11/05 11:05:20;;;;;;;;;;;16.00;99.90;;;;;;5031923;28;19917;-77
2022/11/05 11:07:55;;;;;;;;;;;16.00;99.90;;;;;;5032806;28;19914;-76
2022/11/05 11:10:23;;;;;;;;;;;16.00;99.90;;;;;;5032048;28;19909;-77
2022/11/05 11:12:50;;;;;;;;;;;16.00;99.90;;;;;;5033047;28;19913;-76
2022/11/05 11:15:20;;;;;;;;;;;15.90;99.90;;;;;;5031883;28;20000;-78
2022/11/05 11:17:47;;;;;;;;;;;15.90;99.90;;;;;;5050064;28;19998;-77
2022/11/05 11:20:25;;;;;;;;;;;15.80;99.90;;;;;;5051188;28;19927;-76
2022/11/05 11:22:58;;;;;;;;;;;15.80;99.90;;;;;;5037656;28;20287;-75
2022/11/05 11:25:26;;;;;;;;;;;15.80;99.90;;;;;;5030655;28;20275;-78
2022/11/05 11:27:52;;;;;;;;;;;15.70;99.90;;;;;;5031086;28;20383;-77
2022/11/05 11:30:19;;;;;;;;;;;15.60;99.90;;;;;;5030841;28;19919;-77
2022/11/05 11:32:47;;;;;;;;;;;15.60;99.90;;;;;;5031286;28;19917;-77
2022/11/05 11:35:21;;;;;;;;;;;15.50;99.90;;;;;;5046633;28;20358;-77
2022/11/05 11:37:48;;;;;;;;;;;15.50;99.90;;;;;;5039824;28;20060;-78
2022/11/05 11:40:17;;;;;;;;;;;15.40;99.90;;;;;;5032461;28;20329;-78
2022/11/05 11:42:48;;;;;;;;;;;15.30;99.90;;;;;;5043527;28;20424;-77
2022/11/05 11:45:37;;;;;;;;;;;15.30;99.90;;;;;;5035623;28;19913;-75
2022/11/05 11:48:05;;;;;;;;;;;15.20;99.90;;;;;;5032469;28;20425;-79
2022/11/05 11:50:37;;;;;;;;;;;15.20;99.90;;;;;;5031901;28;19916;-77
2022/11/05 11:53:22;;;;;;;;;;;15.20;99.90;;;;;;5045172;28;20401;-78
2022/11/05 11:55:55;;;;;;;;;;;15.10;99.90;;;;;;5050222;28;20431;-79
2022/11/05 11:58:22;;;;;;;;;;;15.10;99.90;;;;;;5050436;28;19921;-79
2022/11/05 12:00:51;;;;;;;;;;;15.00;99.90;;;;;;5050352;28;19970;-77
2022/11/05 12:03:24;;;;;;;;;;;15.10;99.90;;;;;;5049737;28;19967;-76
2022/11/05 12:06:08;;;;;;;;;;;15.00;99.90;;;;;;5035061;28;19932;-77
2022/11/05 12:08:38;;;;;;;;;;;14.90;99.90;;;;;;5047896;28;20023;-78
2022/11/05 12:11:13;;;;;;;;;;;14.90;99.90;;;;;;5050546;28;19960;-78
2022/11/05 12:13:43;;;;;;;;;;;14.90;99.90;;;;;;5041738;28;19925;-79
2022/11/05 12:16:12;;;;;;;;;;;14.80;99.90;;;;;;5050594;28;20551;-78
2022/11/05 12:18:46;;;;;;;;;;;14.80;99.90;;;;;;5032126;28;19921;-79
2022/11/05 12:21:28;;;;;;;;;;;14.80;99.90;;;;;;5031350;28;20287;-76
2022/11/05 12:23:59;;;;;;;;;;;14.80;99.90;;;;;;5053008;28;19916;-76
2022/11/05 12:26:26;;;;;;;;;;;14.80;99.90;;;;;;5066445;28;19912;-77
2022/11/05 12:29:16;;;;;;;;;;;14.80;99.90;;;;;;5036942;28;20322;-76
2022/11/05 12:31:48;;;;;;;;;;;14.70;99.90;;;;;;5019328;28;19913;-79
2022/11/05 12:34:35;;;;;;;;;;;14.70;99.90;;;;;;5046729;28;19913;-77
2022/11/05 12:37:02;;;;;;;;;;;14.70;99.90;;;;;;5050295;28;19916;-75
2022/11/05 12:39:41;;;;;;;;;;;14.70;99.90;;;;;;5051362;28;19913;-77
2022/11/05 12:42:28;;;;;;;;;;;14.60;99.90;;;;;;5057561;28;20420;-77
2022/11/05 12:44:59;;;;;;;;;;;14.60;99.90;;;;;;5059876;28;20003;-71
2022/11/05 12:47:34;;;;;;;;;;;14.60;99.90;;;;;;5045549;28;19913;-76
2022/11/05 12:50:04;;;;;;;;;;;14.60;99.90;;;;;;5052539;28;20365;-77
2022/11/05 12:52:48;;;;;;;;;;;14.60;99.90;;;;;;5045554;28;19913;-72
2022/11/05 12:55:18;;;;;;;;;;;14.60;99.90;;;;;;5033479;28;19919;-76
2022/11/05 12:57:47;;;;;;;;;;;14.50;99.90;;;;;;5045411;28;20013;-76
2022/11/05 13:00:24;;;;;;;;;;;14.40;99.90;;;;;;5052824;28;19919;-77
2022/11/05 13:02:51;;;;;;;;;;;14.40;99.90;;;;;;5034067;28;20405;-78
2022/11/05 13:05:24;;;;;;;;;;;14.30;99.90;;;;;;5035663;28;19929;-77
2022/11/05 13:07:57;;;;;;;;;;;14.30;99.90;;;;;;5033866;28;19913;-77
2022/11/05 13:10:27;;;;;;;;;;;14.30;99.90;;;;;;5034688;28;19909;-74
2022/11/05 13:12:59;;;;;;;;;;;14.20;99.90;;;;;;5035098;28;19913;-78
2022/11/05 13:15:31;;;;;;;;;;;14.20;99.90;;;;;;5035018;28;20377;-76
2022/11/05 13:17:59;;;;;;;;;;;14.20;99.90;;;;;;5045623;28;19940;-77
2022/11/05 13:20:32;;;;;;;;;;;14.20;99.90;;;;;;5051051;28;20286;-73
2022/11/05 13:23:19;;;;;;;;;;;14.20;99.90;;;;;;5042638;28;19917;-78
2022/11/05 13:25:51;;;;;;;;;;;14.20;99.90;;;;;;5034324;28;19920;-78
2022/11/05 13:28:34;;;;;;;;;;;14.10;99.90;;;;;;5034969;28;19932;-73
2022/11/05 13:31:03;;;;;;;;;;;14.10;99.90;;;;;;5039681;28;20298;-73
2022/11/05 13:33:37;;;;;;;;;;;14.10;99.90;;;;;;5045201;28;19916;-71
2022/11/05 13:39:16;;;;;;;;;;;13.90;99.90;;;;;;5054543;28;19943;-77
2022/11/05 13:41:43;;;;;;;;;;;13.90;99.90;;;;;;5050556;28;19959;-76
2022/11/05 13:44:10;;;;;;;;;;;13.90;99.90;;;;;;5034144;28;19971;-76
2022/11/05 13:46:45;;;;;;;;;;;13.90;99.90;;;;;;5034702;28;19920;-75
2022/11/05 13:49:12;;;;;;;;;;;13.90;99.90;;;;;;5034144;28;19928;-76
2022/11/05 13:51:45;;;;;;;;;;;13.90;99.90;;;;;;5050481;28;19921;-77
2022/11/05 13:54:26;;;;;;;;;;;13.80;99.90;;;;;;5045202;28;19913;-76
2022/11/05 13:56:53;;;;;;;;;;;13.80;99.90;;;;;;5034444;28;19917;-75
2022/11/05 13:59:29;;;;;;;;;;;13.80;99.90;;;;;;5033988;28;20012;-77
2022/11/05 14:01:55;;;;;;;;;;;13.80;99.90;;;;;;5034660;28;19923;-73
2022/11/05 14:04:22;;;;;;;;;;;13.70;99.90;;;;;;5033825;28;19995;-77
2022/11/05 14:06:49;;;;;;;;;;;13.70;99.90;;;;;;5037372;28;19929;-76
2022/11/05 14:09:18;;;;;;;;;;;13.70;99.90;;;;;;5053613;28;19916;-77
2022/11/05 14:11:50;;;;;;;;;;;13.70;99.90;;;;;;5048819;28;20372;-77
2022/11/05 14:14:18;;;;;;;;;;;13.60;99.90;;;;;;5033455;28;20291;-75
2022/11/05 14:17:03;;;;;;;;;;;13.60;99.90;;;;;;5034067;28;19970;-77
2022/11/05 14:19:33;;;;;;;;;;;13.60;99.90;;;;;;5033498;28;19913;-76
2022/11/05 14:21:59;;;;;;;;;;;13.60;99.90;;;;;;5034493;28;19913;-75
2022/11/05 14:24:28;;;;;;;;;;;13.50;99.90;;;;;;5041381;28;20303;-75
2022/11/05 14:27:00;;;;;;;;;;;13.50;99.90;;;;;;5048009;28;19968;-71
2022/11/05 14:29:37;;;;;;;;;;;13.50;99.90;;;;;;5052760;28;20008;-76
2022/11/05 14:32:23;;;;;;;;;;;13.50;99.90;;;;;;5052063;28;19952;-72
2022/11/05 14:35:08;;;;;;;;;;;13.50;99.90;;;;;;5033478;28;20397;-76
2022/11/05 14:37:54;;;;;;;;;;;13.50;99.90;;;;;;5033825;28;19924;-74
2022/11/05 14:40:21;;;;;;;;;;;13.40;99.90;;;;;;5037098;28;19963;-76
2022/11/05 14:42:49;;;;;;;;;;;13.40;99.90;;;;;;5052166;28;19920;-77
2022/11/05 14:45:16;;;;;;;;;;;13.40;99.90;;;;;;5052300;28;19966;-74
2022/11/05 14:47:49;;;;;;;;;;;13.40;99.90;;;;;;5041370;28;19917;-76
2022/11/05 14:50:25;;;;;;;;;;;13.40;99.90;;;;;;5039550;28;19915;-74
2022/11/05 14:52:52;;;;;;;;;;;13.40;99.90;;;;;;5039652;28;19920;-74
2022/11/05 14:55:25;;;;;;;;;;;13.40;99.90;;;;;;5032842;28;19933;-75
2022/11/05 14:57:52;;;;;;;;;;;13.40;99.90;;;;;;5048786;28;19982;-73
2022/11/05 15:00:27;;;;;;;;;;;13.40;99.90;;;;;;5052613;28;19913;-75
2022/11/05 15:03:01;;;;;;;;;;;13.40;99.90;;;;;;5051236;28;19963;-76
2022/11/05 15:05:33;;;;;;;;;;;13.30;99.90;;;;;;5051675;28;19924;-76
2022/11/05 15:08:19;;;;;;;;;;;13.30;99.90;;;;;;5037533;28;19975;-76
2022/11/05 15:10:47;;;;;;;;;;;13.30;99.90;;;;;;5051577;28;19948;-76
2022/11/05 15:13:27;;;;;;;;;;;13.30;99.90;;;;;;5036274;28;19913;-75
2022/11/05 15:15:55;;;;;;;;;;;13.30;99.90;;;;;;5040270;28;19916;-73
2022/11/05 15:18:29;;;;;;;;;;;13.30;99.90;;;;;;5050548;28;20386;-77